Time;durP1;ratioP1;P1;durP2;ratioP2;P2;SDS_P1;SDS_P2;PMS_P1;PMS_P2;Temp;Humidity;BMP_temperature;BMP_pressure;BME280_temperature;BME280_humidity;BME280_pressure;Samples;Min_cycle;Max_cycle;Signal;HPM_P1;HPM_P2
2022/01/10 00:00:51;;;;;;;3.47;1.48;;;;;;;;;;4960920;28;20058;-71
2022/01/10 00:03:24;;;;;;;7.55;1.48;;;;;;;;;;4927915;28;20051;-73
2022/01/10 00:05:54;;;;;;;8.00;1.70;;;;;;;;;;4960855;28;20059;-74
2022/01/10 00:08:25;;;;;;;7.30;1.63;;;;;;;;;;4961686;28;20048;-75
2022/01/10 00:10:55;;;;;;;9.30;1.67;;;;;;;;;;4961423;28;20415;-74
2022/01/10 00:13:26;;;;;;;8.82;1.58;;;;;;;;;;4933647;28;20042;-74
2022/01/10 00:15:56;;;;;;;11.77;1.25;;;;;;;;;;4962489;28;20051;-74
2022/01/10 00:18:26;;;;;;;10.52;1.63;;;;;;;;;;4945387;28;20055;-71
2022/01/10 00:20:57;;;;;;;6.72;1.63;;;;;;;;;;4961312;28;20059;-74
2022/01/10 00:23:28;;;;;;;7.00;1.42;;;;;;;;;;4951526;28;20054;-73
2022/01/10 00:26:00;;;;;;;6.78;1.67;;;;;;;;;;4932763;29;20052;-74
2022/01/10 00:28:30;;;;;;;12.68;1.60;;;;;;;;;;4933116;29;20059;-73
2022/01/10 00:31:02;;;;;;;13.13;1.60;;;;;;;;;;4922935;28;20069;-72
2022/01/10 00:33:33;;;;;;;7.07;1.40;;;;;;;;;;4974938;28;20055;-74
2022/01/10 00:36:03;;;;;;;6.60;1.55;;;;;;;;;;4990700;28;20058;-72
2022/01/10 00:38:34;;;;;;;9.73;1.63;;;;;;;;;;4990022;28;20069;-73
2022/01/10 00:41:04;;;;;;;9.60;1.35;;;;;;;;;;4990667;28;20073;-72
2022/01/10 00:43:40;;;;;;;5.70;1.40;;;;;;;;;;4990766;28;20101;-71
2022/01/10 00:46:10;;;;;;;10.15;1.50;;;;;;;;;;5006442;28;20057;-71
2022/01/10 00:48:41;;;;;;;18.02;1.73;;;;;;;;;;4984475;28;20525;-72
2022/01/10 00:51:12;;;;;;;5.07;1.70;;;;;;;;;;4991097;28;20047;-73
2022/01/10 00:53:49;;;;;;;7.78;1.33;;;;;;;;;;4978255;28;20491;-74
2022/01/10 00:56:21;;;;;;;6.53;1.85;;;;;;;;;;4980611;28;20054;-70
2022/01/10 00:58:52;;;;;;;6.43;1.85;;;;;;;;;;4981890;28;20076;-72
2022/01/10 01:01:23;;;;;;;6.50;1.55;;;;;;;;;;4974011;28;20054;-72
2022/01/10 01:03:54;;;;;;;12.98;1.88;;;;;;;;;;4961187;28;20058;-75
2022/01/10 01:06:24;;;;;;;10.05;2.28;;;;;;;;;;4967098;28;20395;-73
2022/01/10 01:09:00;;;;;;;6.13;1.45;;;;;;;;;;4955256;28;20058;-74
2022/01/10 01:12:05;;;;;;;10.20;1.67;;;;;;;;;;4975842;28;20155;-74
2022/01/10 01:14:26;;;;;;;7.60;1.90;;;;;;;;;;4973690;28;20061;-72
2022/01/10 01:17:10;;;;;;;6.60;1.80;;;;;;;;;;4986995;28;20062;-74
2022/01/10 01:20:04;;;;;;;12.15;2.15;;;;;;;;;;4982264;28;20050;-75
2022/01/10 01:25:24;;;;;;;8.20;2.20;;;;;;;;;;4957381;28;20062;-71
2022/01/10 01:27:55;;;;;;;9.45;2.08;;;;;;;;;;4969563;28;20513;-74
2022/01/10 01:30:26;;;;;;;10.15;2.20;;;;;;;;;;4960831;28;20055;-67
2022/01/10 01:32:58;;;;;;;9.82;2.05;;;;;;;;;;4994829;28;20050;-71
2022/01/10 01:35:28;;;;;;;;;;;;;;;;;;4990090;28;20123;-73
2022/01/10 01:37:59;;;;;;;12.07;2.20;;;;;;;;;;5005823;28;19994;-72
2022/01/10 01:40:32;;;;;;;6.63;2.17;;;;;;;;;;4970041;28;20050;-73
2022/01/10 01:43:02;;;;;;;10.73;2.05;;;;;;;;;;4970437;28;20059;-71
2022/01/10 01:45:45;;;;;;;15.82;2.75;;;;;;;;;;4989598;28;20130;-71
2022/01/10 01:48:17;;;;;;;9.70;2.38;;;;;;;;;;4989875;28;20065;-73
2022/01/10 01:50:47;;;;;;;15.80;2.58;;;;;;;;;;4989908;28;20059;-73
2022/01/10 01:53:18;;;;;;;13.95;2.72;;;;;;;;;;4950648;28;20055;-73
2022/01/10 01:55:49;;;;;;;11.13;2.63;;;;;;;;;;4927766;29;20056;-74
2022/01/10 01:58:19;;;;;;;11.35;2.22;;;;;;;;;;4880267;29;20052;-74
2022/01/10 02:00:50;;;;;;;6.30;2.25;;;;;;;;;;4931774;29;20479;-70
2022/01/10 02:03:21;;;;;;;16.92;2.30;;;;;;;;;;4931718;29;20056;-69
2022/01/10 02:05:58;;;;;;;7.47;2.20;;;;;;;;;;4931958;29;20100;-73
2022/01/10 02:08:30;;;;;;;16.23;2.33;;;;;;;;;;4909232;29;20053;-72
2022/01/10 02:11:00;;;;;;;10.40;2.70;;;;;;;;;;4889031;29;20053;-70
2022/01/10 02:13:32;;;;;;;11.85;2.42;;;;;;;;;;4893715;29;20064;-74
2022/01/10 02:16:11;;;;;;;9.38;2.28;;;;;;;;;;4893730;29;20064;-74
2022/01/10 02:18:42;;;;;;;8.30;2.42;;;;;;;;;;4845774;29;20201;-73
2022/01/10 02:21:14;;;;;;;6.95;2.20;;;;;;;;;;4886450;29;20056;-72
2022/01/10 02:23:45;;;;;;;11.85;2.33;;;;;;;;;;4841014;29;20058;-72
2022/01/10 02:26:21;;;;;;;7.65;2.15;;;;;;;;;;4893475;29;20061;-75
2022/01/10 02:28:52;;;;;;;12.20;2.88;;;;;;;;;;4893479;29;20436;-72
2022/01/10 02:31:22;;;;;;;12.15;2.10;;;;;;;;;;4907318;29;20060;-72
2022/01/10 02:33:57;;;;;;;9.70;2.25;;;;;;;;;;4887529;29;20539;-68
2022/01/10 02:36:27;;;;;;;8.35;2.08;;;;;;;;;;4889930;29;20072;-73
2022/01/10 02:39:00;;;;;;;9.80;2.33;;;;;;;;;;4881482;29;20068;-72
2022/01/10 02:41:36;;;;;;;7.63;2.20;;;;;;;;;;4881733;29;20064;-73
2022/01/10 02:44:09;;;;;;;6.13;2.45;;;;;;;;;;4912380;29;20057;-74
2022/01/10 02:46:41;;;;;;;7.60;2.53;;;;;;;;;;4910279;29;20397;-73
2022/01/10 02:49:28;;;;;;;6.45;2.17;;;;;;;;;;4900175;29;20052;-73
2022/01/10 02:52:00;;;;;;;10.38;2.33;;;;;;;;;;4893255;29;20162;-73
2022/01/10 02:54:32;;;;;;;24.33;3.60;;;;;;;;;;4892994;29;20072;-72
2022/01/10 02:57:10;;;;;;;8.65;2.40;;;;;;;;;;4877888;29;20064;-73
2022/01/10 02:59:42;;;;;;;5.68;2.08;;;;;;;;;;4844042;29;20054;-71
2022/01/10 03:02:18;;;;;;;8.35;2.15;;;;;;;;;;4871100;29;20069;-71
2022/01/10 03:04:49;;;;;;;11.27;2.97;;;;;;;;;;4874910;29;20564;-67
2022/01/10 03:07:24;;;;;;;9.38;2.67;;;;;;;;;;4912205;29;20414;-74
2022/01/10 03:09:55;;;;;;;8.65;2.20;;;;;;;;;;4953481;29;20054;-72
2022/01/10 03:12:28;;;;;;;6.60;2.45;;;;;;;;;;4972454;28;20055;-73
2022/01/10 03:14:59;;;;;;;7.40;2.42;;;;;;;;;;4972760;28;20058;-69
2022/01/10 03:17:31;;;;;;;10.45;2.55;;;;;;;;;;4941130;28;20419;-73
2022/01/10 03:20:05;;;;;;;7.57;2.45;;;;;;;;;;4961862;28;20399;-73
2022/01/10 03:22:35;;;;;;;12.63;2.65;;;;;;;;;;4991812;28;20540;-74
2022/01/10 03:25:06;;;;;;;13.13;2.50;;;;;;;;;;4940125;28;20047;-73
2022/01/10 03:27:39;;;;;;;17.73;2.63;;;;;;;;;;4944543;28;20081;-74
2022/01/10 03:30:11;;;;;;;9.63;2.15;;;;;;;;;;4972190;28;20562;-73
2022/01/10 03:32:43;;;;;;;9.23;2.80;;;;;;;;;;4991731;28;20200;-73
2022/01/10 03:35:24;;;;;;;8.48;2.65;;;;;;;;;;4977574;28;20077;-72
2022/01/10 03:37:55;;;;;;;11.45;2.47;;;;;;;;;;4958034;28;20211;-70
2022/01/10 03:40:29;;;;;;;10.80;2.75;;;;;;;;;;4991473;28;20453;-71
2022/01/10 03:43:04;;;;;;;6.00;2.53;;;;;;;;;;4949976;28;20054;-73
2022/01/10 03:45:35;;;;;;;12.55;2.78;;;;;;;;;;4955638;28;20047;-72
2022/01/10 03:48:05;;;;;;;9.95;2.72;;;;;;;;;;4963619;28;20587;-74
2022/01/10 03:50:36;;;;;;;12.40;2.92;;;;;;;;;;4968355;28;20570;-73
2022/01/10 03:53:06;;;;;;;10.13;2.72;;;;;;;;;;4968545;28;20043;-73
2022/01/10 03:55:38;;;;;;;9.27;2.75;;;;;;;;;;4963362;28;20063;-72
2022/01/10 03:58:09;;;;;;;10.02;2.60;;;;;;;;;;4964454;28;20373;-73
2022/01/10 04:00:40;;;;;;;7.32;2.22;;;;;;;;;;4917295;29;20488;-72
2022/01/10 04:03:10;;;;;;;12.98;2.97;;;;;;;;;;4933405;29;20055;-73
2022/01/10 04:05:49;;;;;;;7.85;2.42;;;;;;;;;;4925524;29;20052;-72
2022/01/10 04:08:20;;;;;;;7.53;2.35;;;;;;;;;;4920806;29;20423;-69
2022/01/10 04:10:51;;;;;;;8.43;2.40;;;;;;;;;;4945137;28;20048;-75
2022/01/10 04:13:23;;;;;;;8.18;2.33;;;;;;;;;;4990658;28;20054;-72
2022/01/10 04:15:53;;;;;;;7.40;2.50;;;;;;;;;;4990617;28;20053;-73
2022/01/10 04:18:24;;;;;;;9.68;2.75;;;;;;;;;;4947463;28;20054;-73
2022/01/10 04:20:55;;;;;;;7.00;2.40;;;;;;;;;;4960678;28;20066;-73
2022/01/10 04:23:25;;;;;;;13.60;2.58;;;;;;;;;;4946950;28;20418;-73
2022/01/10 04:25:56;;;;;;;6.50;2.13;;;;;;;;;;4970886;28;20406;-72
2022/01/10 04:28:27;;;;;;;9.38;2.38;;;;;;;;;;4960266;28;20064;-73
2022/01/10 04:30:58;;;;;;;8.68;2.65;;;;;;;;;;4962364;28;20047;-73
2022/01/10 04:33:30;;;;;;;9.20;2.38;;;;;;;;;;4967395;28;20198;-73
2022/01/10 04:36:00;;;;;;;10.90;2.10;;;;;;;;;;4921134;29;20058;-73
2022/01/10 04:38:31;;;;;;;6.28;1.95;;;;;;;;;;4932309;29;20056;-73
2022/01/10 04:41:04;;;;;;;10.70;2.08;;;;;;;;;;4932565;29;20058;-74
2022/01/10 04:43:35;;;;;;;11.20;2.78;;;;;;;;;;4932257;29;20523;-73
2022/01/10 04:46:07;;;;;;;5.95;1.90;;;;;;;;;;4907021;29;20052;-74
2022/01/10 04:48:37;;;;;;;10.15;2.10;;;;;;;;;;4902530;29;20432;-72
2022/01/10 04:51:19;;;;;;;9.25;2.40;;;;;;;;;;4914655;29;20487;-73
2022/01/10 04:53:51;;;;;;;7.78;2.13;;;;;;;;;;4900708;29;20067;-72
2022/01/10 04:56:22;;;;;;;7.25;2.13;;;;;;;;;;4951066;29;20433;-73
2022/01/10 04:58:55;;;;;;;6.43;2.25;;;;;;;;;;4935137;29;20086;-73
2022/01/10 05:01:26;;;;;;;8.30;1.83;;;;;;;;;;4947461;29;20055;-73
2022/01/10 05:04:00;;;;;;;12.55;2.97;;;;;;;;;;4891023;29;20108;-73
2022/01/10 05:06:30;;;;;;;6.65;2.20;;;;;;;;;;4882147;29;20061;-74
2022/01/10 05:09:01;;;;;;;8.70;2.42;;;;;;;;;;4893986;29;20052;-73
2022/01/10 05:11:49;;;;;;;7.38;1.90;;;;;;;;;;4873909;29;20105;-72
2022/01/10 05:14:19;;;;;;;5.18;1.83;;;;;;;;;;4866950;29;20426;-75
2022/01/10 05:16:49;;;;;;;5.93;1.80;;;;;;;;;;4858663;29;20053;-71
2022/01/10 05:19:20;;;;;;;5.07;1.85;;;;;;;;;;4920720;29;20057;-73
2022/01/10 05:21:50;;;;;;;5.70;1.95;;;;;;;;;;4894423;29;20059;-73
2022/01/10 05:24:21;;;;;;;3.08;1.48;;;;;;;;;;4894695;29;20060;-73
2022/01/10 05:26:50;;;;;;;10.52;2.03;;;;;;;;;;4909996;29;20067;-73
2022/01/10 05:29:24;;;;;;;8.50;1.95;;;;;;;;;;4896567;29;20063;-72
2022/01/10 05:31:55;;;;;;;10.32;1.85;;;;;;;;;;4931826;29;20515;-73
2022/01/10 05:34:42;;;;;;;8.43;2.10;;;;;;;;;;4931956;29;20052;-72
2022/01/10 05:37:13;;;;;;;6.95;1.85;;;;;;;;;;4912802;29;20051;-73
2022/01/10 05:39:43;;;;;;;7.97;1.52;;;;;;;;;;4927286;29;20051;-72
2022/01/10 05:42:14;;;;;;;6.80;1.88;;;;;;;;;;4931253;29;20523;-73
2022/01/10 05:44:45;;;;;;;5.28;1.50;;;;;;;;;;4912894;29;20052;-72
2022/01/10 05:47:15;;;;;;;7.15;1.95;;;;;;;;;;4926832;29;20416;-73
2022/01/10 05:49:48;;;;;;;5.40;1.73;;;;;;;;;;4912707;29;20052;-73
2022/01/10 05:52:23;;;;;;;5.75;1.95;;;;;;;;;;4913034;29;20404;-73
2022/01/10 05:54:56;;;;;;;8.13;1.70;;;;;;;;;;4913103;29;20067;-73
2022/01/10 05:57:27;;;;;;;6.70;1.45;;;;;;;;;;4905390;29;20222;-72
2022/01/10 05:59:58;;;;;;;4.75;1.88;;;;;;;;;;4931697;29;20060;-72
2022/01/10 06:02:28;;;;;;;10.77;2.05;;;;;;;;;;4912610;29;20173;-71
2022/01/10 06:05:05;;;;;;;6.00;1.63;;;;;;;;;;4881896;29;20056;-73
2022/01/10 06:07:42;;;;;;;7.85;1.90;;;;;;;;;;4860884;29;20058;-73
2022/01/10 06:10:12;;;;;;;9.23;1.90;;;;;;;;;;4886863;29;20053;-73
2022/01/10 06:12:43;;;;;;;12.30;1.67;;;;;;;;;;4875209;29;20064;-74
2022/01/10 06:15:14;;;;;;;8.75;2.40;;;;;;;;;;4897261;29;20416;-69
2022/01/10 06:17:45;;;;;;;6.88;2.03;;;;;;;;;;4916098;29;20076;-74
2022/01/10 06:20:16;;;;;;;4.60;1.70;;;;;;;;;;4916380;29;20067;-71
2022/01/10 06:22:47;;;;;;;5.03;1.83;;;;;;;;;;4910075;29;20053;-73
2022/01/10 06:25:24;;;;;;;6.00;1.60;;;;;;;;;;4897406;29;20056;-73
2022/01/10 06:27:56;;;;;;;5.47;1.65;;;;;;;;;;4867082;29;20056;-72
2022/01/10 06:30:27;;;;;;;6.70;1.77;;;;;;;;;;4939750;28;20061;-73
2022/01/10 06:32:58;;;;;;;4.50;1.83;;;;;;;;;;4942859;29;20051;-70
2022/01/10 06:35:35;;;;;;;4.20;1.88;;;;;;;;;;4890561;29;20171;-72
2022/01/10 06:38:06;;;;;;;5.75;1.75;;;;;;;;;;4921472;29;20052;-73
2022/01/10 06:40:40;;;;;;;6.53;1.65;;;;;;;;;;4903819;29;20061;-73
2022/01/10 06:43:10;;;;;;;5.43;1.60;;;;;;;;;;4934525;29;20051;-72
2022/01/10 06:45:41;;;;;;;8.75;1.83;;;;;;;;;;4888902;29;20052;-73
2022/01/10 06:48:12;;;;;;;4.28;1.88;;;;;;;;;;4884897;29;20066;-73
2022/01/10 06:50:46;;;;;;;6.32;1.70;;;;;;;;;;4902819;29;20048;-71
2022/01/10 06:53:19;;;;;;;5.13;1.65;;;;;;;;;;4934312;29;20097;-73
2022/01/10 06:55:53;;;;;;;9.35;1.95;;;;;;;;;;4890490;29;20060;-72
2022/01/10 06:58:23;;;;;;;5.35;1.95;;;;;;;;;;4877884;29;20064;-73
2022/01/10 07:00:53;;;;;;;5.78;2.25;;;;;;;;;;4868626;29;20061;-72
2022/01/10 07:03:24;;;;;;;7.90;2.38;;;;;;;;;;4855989;29;20066;-69
2022/01/10 07:06:05;;;;;;;4.30;1.70;;;;;;;;;;4896285;29;20484;-72
2022/01/10 07:08:36;;;;;;;4.90;1.70;;;;;;;;;;4896693;29;20060;-70
2022/01/10 07:11:08;;;;;;;6.65;1.52;;;;;;;;;;4901872;29;20048;-71
2022/01/10 07:13:41;;;;;;;6.20;1.92;;;;;;;;;;4909462;29;20497;-72
2022/01/10 07:16:12;;;;;;;5.40;2.05;;;;;;;;;;4884805;29;20382;-73
2022/01/10 07:18:45;;;;;;;10.63;2.15;;;;;;;;;;4902421;29;20063;-72
2022/01/10 07:21:25;;;;;;;9.90;2.53;;;;;;;;;;4849986;29;20160;-72
2022/01/10 07:23:55;;;;;;;8.43;2.00;;;;;;;;;;4871607;29;20058;-73
2022/01/10 07:26:27;;;;;;;6.32;2.20;;;;;;;;;;4832416;29;20065;-72
2022/01/10 07:28:59;;;;;;;;;;;;;;;;;;4868274;29;20060;-73
2022/01/10 07:31:29;;;;;;;;;;;;;;;;;;4920006;29;20024;-72
2022/01/10 07:33:59;;;;;;;11.93;2.42;;;;;;;;;;4940134;28;19922;-73
2022/01/10 07:36:30;;;;;;;5.63;2.13;;;;;;;;;;4933614;29;20082;-69
2022/01/10 07:39:00;;;;;;;5.78;1.98;;;;;;;;;;4934237;29;20063;-70
2022/01/10 07:41:31;;;;;;;7.00;2.15;;;;;;;;;;4933985;29;20064;-72
2022/01/10 07:44:01;;;;;;;5.68;2.35;;;;;;;;;;4933850;29;20063;-72
2022/01/10 07:46:31;;;;;;;8.02;2.40;;;;;;;;;;4917962;29;20067;-73
2022/01/10 07:49:03;;;;;;;6.03;2.13;;;;;;;;;;4909450;28;20984;-71
2022/01/10 07:51:33;;;;;;;7.47;2.20;;;;;;;;;;4972151;28;20054;-73
2022/01/10 07:54:04;;;;;;;8.18;2.08;;;;;;;;;;4956715;28;20059;-73
2022/01/10 07:56:34;;;;;;;7.13;1.90;;;;;;;;;;4983233;28;20065;-71
2022/01/10 07:59:04;;;;;;;5.97;1.90;;;;;;;;;;5001588;28;20065;-72
2022/01/10 08:01:38;;;;;;;5.78;2.00;;;;;;;;;;4978799;28;20401;-73
2022/01/10 08:04:08;;;;;;;5.43;2.05;;;;;;;;;;5012934;28;20050;-72
2022/01/10 08:06:38;;;;;;;5.65;1.90;;;;;;;;;;5033171;28;20041;-72
2022/01/10 08:09:09;;;;;;;12.38;2.60;;;;;;;;;;5047171;28;20061;-74
2022/01/10 08:11:40;;;;;;;9.40;1.98;;;;;;;;;;5032961;28;20046;-72
2022/01/10 08:14:10;;;;;;;8.65;2.08;;;;;;;;;;5014360;28;20058;-73
2022/01/10 08:16:40;;;;;;;7.22;2.13;;;;;;;;;;5050641;28;20061;-71
2022/01/10 08:19:10;;;;;;;6.78;2.10;;;;;;;;;;5016917;28;20060;-72
2022/01/10 08:21:41;;;;;;;5.97;2.42;;;;;;;;;;5016837;28;20049;-72
2022/01/10 08:24:11;;;;;;;11.02;2.10;;;;;;;;;;5050300;28;20511;-71
2022/01/10 08:26:42;;;;;;;5.43;1.80;;;;;;;;;;5030048;28;20049;-73
2022/01/10 08:29:12;;;;;;;6.72;1.75;;;;;;;;;;5014269;28;20448;-71
2022/01/10 08:31:42;;;;;;;10.52;2.25;;;;;;;;;;5013989;28;20061;-71
2022/01/10 08:34:14;;;;;;;8.13;2.13;;;;;;;;;;5029639;28;20045;-73
2022/01/10 08:36:44;;;;;;;4.10;1.92;;;;;;;;;;5030227;28;20053;-72
2022/01/10 08:39:15;;;;;;;9.07;2.53;;;;;;;;;;5029929;28;20081;-69
2022/01/10 08:41:45;;;;;;;8.02;2.25;;;;;;;;;;5030192;28;20054;-72
2022/01/10 08:44:17;;;;;;;7.45;2.13;;;;;;;;;;4996930;28;20120;-71
2022/01/10 08:46:48;;;;;;;5.50;2.00;;;;;;;;;;5031772;28;20057;-72
2022/01/10 08:49:18;;;;;;;8.73;2.30;;;;;;;;;;5050001;28;20420;-73
2022/01/10 08:51:54;;;;;;;7.40;1.98;;;;;;;;;;5049979;28;20053;-72
2022/01/10 08:54:25;;;;;;;7.10;2.45;;;;;;;;;;5034167;28;20053;-72
2022/01/10 08:56:55;;;;;;;5.03;2.00;;;;;;;;;;5049973;28;20430;-72
2022/01/10 08:59:28;;;;;;;5.28;1.73;;;;;;;;;;5029636;28;20092;-73
2022/01/10 09:01:59;;;;;;;7.93;2.40;;;;;;;;;;4990194;28;20061;-72
2022/01/10 09:04:30;;;;;;;7.65;2.20;;;;;;;;;;4957985;28;20054;-71
2022/01/10 09:07:03;;;;;;;6.45;2.15;;;;;;;;;;4990417;28;20069;-71
2022/01/10 09:09:35;;;;;;;7.13;2.22;;;;;;;;;;4958505;28;20054;-71
2022/01/10 09:12:06;;;;;;;6.97;2.10;;;;;;;;;;4974522;28;20054;-71
2022/01/10 09:14:36;;;;;;;7.20;2.17;;;;;;;;;;4923865;28;20157;-72
2022/01/10 09:17:07;;;;;;;5.45;2.80;;;;;;;;;;4970877;28;20063;-71
2022/01/10 09:19:38;;;;;;;9.55;2.63;;;;;;;;;;4970897;28;20172;-71
2022/01/10 09:22:09;;;;;;;10.75;2.42;;;;;;;;;;4938820;28;20061;-69
2022/01/10 09:24:39;;;;;;;8.63;2.20;;;;;;;;;;4970864;28;20062;-71
2022/01/10 09:27:09;;;;;;;9.00;2.20;;;;;;;;;;4970769;28;20573;-71
2022/01/10 09:29:41;;;;;;;12.63;2.70;;;;;;;;;;4970688;28;20728;-72
2022/01/10 09:32:12;;;;;;;;;;;;;;;;;;4922337;29;20047;-72
2022/01/10 09:34:42;;;;;;;9.68;3.00;;;;;;;;;;4944989;29;20061;-68
2022/01/10 09:37:12;;;;;;;8.50;2.20;;;;;;;;;;4962167;28;20070;-75
2022/01/10 09:39:43;;;;;;;12.25;2.92;;;;;;;;;;4962778;28;21079;-71
2022/01/10 09:42:15;;;;;;;9.88;3.25;;;;;;;;;;4944285;28;20508;-69
2022/01/10 09:44:45;;;;;;;9.20;3.08;;;;;;;;;;4994258;28;20057;-71
2022/01/10 09:47:16;;;;;;;18.27;3.22;;;;;;;;;;5013764;28;20072;-73
2022/01/10 09:49:46;;;;;;;14.35;3.33;;;;;;;;;;4981781;28;20062;-71
2022/01/10 09:52:17;;;;;;;7.38;2.92;;;;;;;;;;5013724;28;20063;-70
2022/01/10 09:54:50;;;;;;;7.47;3.03;;;;;;;;;;5017515;28;20054;-72
2022/01/10 09:57:23;;;;;;;11.35;2.97;;;;;;;;;;5013764;28;20499;-70
2022/01/10 09:59:54;;;;;;;9.77;3.40;;;;;;;;;;4981557;28;20062;-71
2022/01/10 10:02:35;;;;;;;10.35;2.70;;;;;;;;;;5015566;28;20602;-70
2022/01/10 10:05:09;;;;;;;14.40;2.83;;;;;;;;;;5017147;28;20416;-70
2022/01/10 10:07:41;;;;;;;12.02;2.90;;;;;;;;;;4953037;28;20052;-70
2022/01/10 10:10:13;;;;;;;10.52;3.05;;;;;;;;;;5032859;28;20076;-70
2022/01/10 10:12:50;;;;;;;;;;;;;;;;;;5033479;28;20054;-71
2022/01/10 10:15:30;;;;;;;7.32;3.08;;;;;;;;;;5032931;28;20025;-70
2022/01/10 10:18:00;;;;;;;10.27;3.08;;;;;;;;;;5032538;28;20076;-70
2022/01/10 10:20:30;;;;;;;8.45;3.05;;;;;;;;;;5032979;28;20061;-70
2022/01/10 10:23:15;;;;;;;10.95;2.72;;;;;;;;;;5032992;28;20062;-70
2022/01/10 10:25:50;;;;;;;5.38;2.53;;;;;;;;;;5032992;28;20045;-70
2022/01/10 10:28:21;;;;;;;9.70;2.78;;;;;;;;;;5032380;28;20057;-72
2022/01/10 10:30:58;;;;;;;11.30;2.60;;;;;;;;;;5010283;28;20064;-71
2022/01/10 10:33:29;;;;;;;9.52;2.85;;;;;;;;;;5039388;28;20516;-72
2022/01/10 10:36:04;;;;;;;12.57;2.63;;;;;;;;;;5063807;28;20048;-71
2022/01/10 10:38:35;;;;;;;13.50;2.60;;;;;;;;;;5056469;28;20064;-72
2022/01/10 10:41:07;;;;;;;6.45;2.38;;;;;;;;;;5052235;28;20052;-69
2022/01/10 10:43:40;;;;;;;8.32;2.60;;;;;;;;;;5020092;28;20053;-70
2022/01/10 10:46:17;;;;;;;6.32;2.63;;;;;;;;;;4999227;28;20513;-68
2022/01/10 10:48:50;;;;;;;12.18;2.70;;;;;;;;;;5028334;28;20061;-72
2022/01/10 10:51:21;;;;;;;10.57;2.97;;;;;;;;;;5001938;28;20423;-71
2022/01/10 10:53:51;;;;;;;8.43;2.65;;;;;;;;;;5039749;28;20662;-73
2022/01/10 10:56:21;;;;;;;10.18;2.58;;;;;;;;;;5040175;28;20056;-71
2022/01/10 10:58:53;;;;;;;10.27;2.60;;;;;;;;;;5006575;28;20852;-72
2022/01/10 11:01:24;;;;;;;7.00;2.45;;;;;;;;;;4973647;28;20057;-72
2022/01/10 11:03:55;;;;;;;7.47;2.70;;;;;;;;;;5041203;28;20045;-71
2022/01/10 11:06:27;;;;;;;5.97;2.22;;;;;;;;;;5032595;28;20046;-71
2022/01/10 11:09:03;;;;;;;7.80;2.35;;;;;;;;;;5009598;28;20050;-74
2022/01/10 11:11:35;;;;;;;7.45;2.17;;;;;;;;;;4973338;28;20603;-75
2022/01/10 11:14:14;;;;;;;8.32;2.05;;;;;;;;;;5028301;28;20049;-74
2022/01/10 11:16:48;;;;;;;3.97;1.35;;;;;;;;;;5008844;28;20050;-72
2022/01/10 11:19:26;;;;;;;4.88;1.55;;;;;;;;;;5012344;28;20502;-73
2022/01/10 11:22:08;;;;;;;4.53;1.65;;;;;;;;;;4983633;28;20057;-73
2022/01/10 11:24:53;;;;;;;4.68;1.63;;;;;;;;;;5021365;28;20412;-71
2022/01/10 11:27:39;;;;;;;4.93;1.60;;;;;;;;;;5046793;28;20041;-72
2022/01/10 11:30:29;;;;;;;6.47;1.42;;;;;;;;;;5046433;28;20052;-74
2022/01/10 11:33:14;;;;;;;3.03;1.17;;;;;;;;;;5051174;28;20060;-73
2022/01/10 11:36:03;;;;;;;4.45;1.65;;;;;;;;;;5051333;28;20060;-73
2022/01/10 11:38:44;;;;;;;4.80;1.00;;;;;;;;;;5051240;28;20067;-74
2022/01/10 11:41:20;;;;;;;5.43;1.05;;;;;;;;;;5051177;28;20148;-72
2022/01/10 11:44:04;;;;;;;4.13;1.00;;;;;;;;;;5001979;28;20053;-74
2022/01/10 11:46:49;;;;;;;4.90;0.90;;;;;;;;;;5051352;28;20049;-69
2022/01/10 11:49:22;;;;;;;3.47;0.63;;;;;;;;;;5017910;28;20057;-72
2022/01/10 11:52:02;;;;;;;3.95;0.93;;;;;;;;;;5037825;28;20049;-72
2022/01/10 11:54:40;;;;;;;3.05;0.80;;;;;;;;;;5080170;28;20407;-72
2022/01/10 11:57:18;;;;;;;2.00;0.63;;;;;;;;;;5078311;28;20078;-70
2022/01/10 11:59:56;;;;;;;3.33;0.90;;;;;;;;;;5079907;28;20399;-74
2022/01/10 12:02:27;;;;;;;;;;;;;;;;;;5079252;28;20052;-72
2022/01/10 12:05:02;;;;;;;2.55;0.50;;;;;;;;;;5061544;28;19932;-74
2022/01/10 12:07:33;;;;;;;4.35;0.98;;;;;;;;;;5062349;28;20055;-71
2022/01/10 12:10:26;;;;;;;1.58;0.73;;;;;;;;;;5058917;28;20055;-72
2022/01/10 12:13:11;;;;;;;1.67;0.73;;;;;;;;;;5053074;28;20061;-72
2022/01/10 12:15:41;;;;;;;3.45;0.63;;;;;;;;;;5052875;28;20040;-76
2022/01/10 12:18:15;;;;;;;2.20;0.93;;;;;;;;;;5052777;28;20420;-72
2022/01/10 12:20:53;;;;;;;4.03;1.20;;;;;;;;;;5052657;28;20037;-73
2022/01/10 12:23:23;;;;;;;2.60;0.70;;;;;;;;;;5034083;28;20057;-71
2022/01/10 12:25:54;;;;;;;1.80;1.15;;;;;;;;;;5052455;28;20045;-71
2022/01/10 12:28:27;;;;;;;2.67;1.17;;;;;;;;;;5052397;28;20056;-73
2022/01/10 12:31:02;;;;;;;1.52;0.80;;;;;;;;;;5029897;28;20049;-73
2022/01/10 12:33:33;;;;;;;3.25;0.73;;;;;;;;;;5030015;28;20084;-71
2022/01/10 12:36:05;;;;;;;2.33;1.30;;;;;;;;;;4977478;28;20042;-69
2022/01/10 12:38:36;;;;;;;3.80;0.93;;;;;;;;;;5010552;28;20065;-72
2022/01/10 12:41:06;;;;;;;1.40;0.75;;;;;;;;;;5010199;28;20058;-72
2022/01/10 12:43:38;;;;;;;3.97;1.13;;;;;;;;;;4961882;28;20104;-73
2022/01/10 12:46:09;;;;;;;3.65;0.88;;;;;;;;;;5010294;28;20053;-70
2022/01/10 12:48:46;;;;;;;3.35;0.73;;;;;;;;;;5010433;28;20058;-73
2022/01/10 12:51:18;;;;;;;2.00;0.63;;;;;;;;;;4994673;28;20066;-74
2022/01/10 12:54:26;;;;;;;2.80;0.95;;;;;;;;;;4971160;28;20051;-72
2022/01/10 12:56:59;;;;;;;2.58;0.93;;;;;;;;;;4971428;28;20079;-71
2022/01/10 12:59:32;;;;;;;2.83;0.90;;;;;;;;;;4971248;28;20065;-67
2022/01/10 13:02:06;;;;;;;2.08;0.65;;;;;;;;;;4940319;28;20406;-70
2022/01/10 13:04:41;;;;;;;7.35;1.25;;;;;;;;;;4971180;28;20062;-70
2022/01/10 13:07:15;;;;;;;4.13;0.80;;;;;;;;;;4970944;28;20438;-70
2022/01/10 13:09:58;;;;;;;;;;;;;;;;;;4991149;28;20398;-71
2022/01/10 13:12:29;;;;;;;2.38;0.95;;;;;;;;;;4990195;28;19928;-72
2022/01/10 13:15:35;;;;;;;2.33;1.15;;;;;;;;;;5009767;28;20540;-67
2022/01/10 13:18:12;;;;;;;4.13;0.80;;;;;;;;;;4951571;29;20063;-69
2022/01/10 13:20:43;;;;;;;3.42;0.73;;;;;;;;;;4951424;28;20050;-71
2022/01/10 13:23:17;;;;;;;2.75;0.80;;;;;;;;;;4951483;29;20561;-73
2022/01/10 13:25:49;;;;;;;3.13;0.93;;;;;;;;;;4951532;29;20063;-71
2022/01/10 13:28:21;;;;;;;3.55;1.00;;;;;;;;;;4905049;29;20060;-70
2022/01/10 13:30:56;;;;;;;2.42;1.00;;;;;;;;;;4962155;28;20077;-72
2022/01/10 13:33:44;;;;;;;2.72;1.10;;;;;;;;;;4959025;28;20050;-71
2022/01/10 13:36:15;;;;;;;3.08;0.80;;;;;;;;;;4941775;28;20202;-71
2022/01/10 13:38:48;;;;;;;1.83;0.57;;;;;;;;;;4990240;28;20194;-68
2022/01/10 13:41:19;;;;;;;2.47;0.73;;;;;;;;;;4989936;28;20062;-72
2022/01/10 13:43:51;;;;;;;3.05;0.80;;;;;;;;;;4990040;28;20101;-71
2022/01/10 13:46:21;;;;;;;3.80;0.90;;;;;;;;;;4990157;28;20054;-72
2022/01/10 13:48:57;;;;;;;1.75;0.60;;;;;;;;;;4941841;28;20434;-71
2022/01/10 13:51:28;;;;;;;3.05;0.90;;;;;;;;;;4957705;28;20055;-70
2022/01/10 13:54:03;;;;;;;3.47;0.90;;;;;;;;;;4998299;28;20084;-71
2022/01/10 13:56:35;;;;;;;2.58;0.63;;;;;;;;;;5017140;28;20053;-67
2022/01/10 13:59:07;;;;;;;3.58;0.73;;;;;;;;;;5051192;28;20077;-71
2022/01/10 14:01:41;;;;;;;1.25;0.73;;;;;;;;;;5051389;28;20063;-67
2022/01/10 14:04:30;;;;;;;3.20;0.60;;;;;;;;;;5049474;28;20056;-73
2022/01/10 14:07:07;;;;;;;3.13;0.75;;;;;;;;;;5051273;28;20392;-67
2022/01/10 14:09:38;;;;;;;4.20;0.80;;;;;;;;;;5051190;28;20404;-72
2022/01/10 14:12:10;;;;;;;4.32;0.70;;;;;;;;;;5015662;28;20056;-68
2022/01/10 14:14:41;;;;;;;7.80;1.30;;;;;;;;;;5032602;28;20057;-66
2022/01/10 14:17:12;;;;;;;4.03;0.73;;;;;;;;;;5049048;28;20709;-69
2022/01/10 14:19:45;;;;;;;2.03;0.73;;;;;;;;;;5048838;28;20053;-69
2022/01/10 14:22:16;;;;;;;5.22;1.00;;;;;;;;;;5031945;28;20041;-69
2022/01/10 14:24:47;;;;;;;;;;;;;;;;;;5049450;28;20057;-69
2022/01/10 14:27:18;;;;;;;3.60;0.80;;;;;;;;;;5048961;28;19920;-71
2022/01/10 14:29:48;;;;;;;1.13;0.70;;;;;;;;;;5048649;28;20049;-69
2022/01/10 14:32:19;;;;;;;1.85;0.60;;;;;;;;;;5050514;28;20056;-69
2022/01/10 14:34:51;;;;;;;4.50;0.75;;;;;;;;;;5052514;28;20164;-70
2022/01/10 14:37:22;;;;;;;3.42;0.73;;;;;;;;;;5052352;28;20052;-73
2022/01/10 14:39:52;;;;;;;2.28;0.57;;;;;;;;;;5052501;28;20049;-69
2022/01/10 14:42:29;;;;;;;2.60;0.60;;;;;;;;;;5036223;28;20059;-72
2022/01/10 14:45:00;;;;;;;1.85;0.73;;;;;;;;;;5052309;28;20041;-68
2022/01/10 14:47:30;;;;;;;2.80;0.68;;;;;;;;;;5019770;28;20063;-69
2022/01/10 14:50:01;;;;;;;6.13;0.95;;;;;;;;;;5053728;28;20057;-69
2022/01/10 14:52:33;;;;;;;3.00;0.60;;;;;;;;;;5054461;28;20037;-70
2022/01/10 14:55:04;;;;;;;1.65;0.68;;;;;;;;;;5054537;28;20048;-67
2022/01/10 14:57:35;;;;;;;;;;;;;;;;;;5054565;28;20052;-71
2022/01/10 15:00:08;;;;;;;3.08;1.23;;;;;;;;;;5054388;28;19920;-72
2022/01/10 15:02:40;;;;;;;4.53;0.88;;;;;;;;;;5054305;28;20049;-72
2022/01/10 15:05:12;;;;;;;2.15;0.82;;;;;;;;;;5054438;28;20048;-71
2022/01/10 15:07:42;;;;;;;4.35;0.55;;;;;;;;;;5054158;28;20041;-70
2022/01/10 15:10:13;;;;;;;1.17;0.63;;;;;;;;;;5054044;28;20052;-69
2022/01/10 15:12:44;;;;;;;7.15;1.17;;;;;;;;;;5054053;28;20397;-72
2022/01/10 15:15:16;;;;;;;2.63;0.80;;;;;;;;;;5054078;28;20052;-79
2022/01/10 15:17:49;;;;;;;1.58;0.50;;;;;;;;;;5051494;28;20044;-73
2022/01/10 15:20:20;;;;;;;6.35;0.60;;;;;;;;;;4959594;28;20083;-69